sensor_id;sensor_type;location;lat;lon;timestamp;P1;durP1;ratioP1;P2;durP2;ratioP2
78844;SDS011;68195;50.854;2.860;2023-06-19T00:01:42;16.58;;;9.02;;
78844;SDS011;68195;50.854;2.860;2023-06-19T00:04:09;17.27;;;9.38;;
78844;SDS011;68195;50.854;2.860;2023-06-19T00:06:37;12.95;;;8.52;;
78844;SDS011;68195;50.854;2.860;2023-06-19T00:09:06;15.00;;;10.48;;
78844;SDS011;68195;50.854;2.860;2023-06-19T00:11:37;13.27;;;9.27;;
78844;SDS011;68195;50.854;2.860;2023-06-19T00:14:02;14.55;;;9.60;;
78844;SDS011;68195;50.854;2.860;2023-06-19T00:16:27;14.88;;;9.30;;
78844;SDS011;68195;50.854;2.860;2023-06-19T00:18:55;13.93;;;8.38;;
78844;SDS011;68195;50.854;2.860;2023-06-19T00:21:24;10.98;;;7.80;;
78844;SDS011;68195;50.854;2.860;2023-06-19T00:23:52;13.85;;;8.40;;
78844;SDS011;68195;50.854;2.860;2023-06-19T00:26:20;11.85;;;7.55;;
78844;SDS011;68195;50.854;2.860;2023-06-19T00:28:52;10.75;;;7.15;;
78844;SDS011;68195;50.854;2.860;2023-06-19T00:31:18;11.35;;;7.68;;
78844;SDS011;68195;50.854;2.860;2023-06-19T00:33:46;8.63;;;6.25;;
78844;SDS011;68195;50.854;2.860;2023-06-19T00:38:45;6.85;;;4.68;;
78844;SDS011;68195;50.854;2.860;2023-06-19T00:41:11;5.70;;;4.18;;
78844;SDS011;68195;50.854;2.860;2023-06-19T00:43:36;6.10;;;4.15;;
78844;SDS011;68195;50.854;2.860;2023-06-19T00:46:02;6.03;;;4.05;;
78844;SDS011;68195;50.854;2.860;2023-06-19T00:48:31;5.28;;;4.35;;
78844;SDS011;68195;50.854;2.860;2023-06-19T00:51:01;6.03;;;4.45;;
78844;SDS011;68195;50.854;2.860;2023-06-19T00:53:29;8.73;;;5.10;;
78844;SDS011;68195;50.854;2.860;2023-06-19T00:55:57;6.90;;;4.60;;
78844;SDS011;68195;50.854;2.860;2023-06-19T00:58:24;7.38;;;5.95;;
78844;SDS011;68195;50.854;2.860;2023-06-19T01:00:53;6.63;;;5.55;;
78844;SDS011;68195;50.854;2.860;2023-06-19T01:03:18;8.75;;;6.25;;
78844;SDS011;68195;50.854;2.860;2023-06-19T01:05:47;9.40;;;6.95;;
78844;SDS011;68195;50.854;2.860;2023-06-19T01:11:16;10.18;;;7.47;;
78844;SDS011;68195;50.854;2.860;2023-06-19T01:13:47;10.45;;;7.97;;
78844;SDS011;68195;50.854;2.860;2023-06-19T01:16:19;10.15;;;8.27;;
78844;SDS011;68195;50.854;2.860;2023-06-19T01:18:46;12.77;;;8.15;;
78844;SDS011;68195;50.854;2.860;2023-06-19T01:21:13;14.52;;;8.73;;
78844;SDS011;68195;50.854;2.860;2023-06-19T01:23:42;13.60;;;9.77;;
78844;SDS011;68195;50.854;2.860;2023-06-19T01:26:11;10.52;;;8.50;;
78844;SDS011;68195;50.854;2.860;2023-06-19T01:28:41;14.63;;;10.20;;
78844;SDS011;68195;50.854;2.860;2023-06-19T01:31:30;14.15;;;10.68;;
78844;SDS011;68195;50.854;2.860;2023-06-19T01:33:56;15.07;;;10.63;;
78844;SDS011;68195;50.854;2.860;2023-06-19T01:36:23;15.40;;;10.73;;
78844;SDS011;68195;50.854;2.860;2023-06-19T01:38:49;17.58;;;12.18;;
78844;SDS011;68195;50.854;2.860;2023-06-19T01:41:18;18.13;;;12.50;;
78844;SDS011;68195;50.854;2.860;2023-06-19T01:43:45;17.30;;;12.55;;
78844;SDS011;68195;50.854;2.860;2023-06-19T01:46:13;19.35;;;13.07;;
78844;SDS011;68195;50.854;2.860;2023-06-19T01:48:41;17.92;;;13.00;;
78844;SDS011;68195;50.854;2.860;2023-06-19T01:51:07;19.08;;;13.68;;
78844;SDS011;68195;50.854;2.860;2023-06-19T01:53:35;15.32;;;12.07;;
78844;SDS011;68195;50.854;2.860;2023-06-19T01:56:03;18.90;;;12.75;;
78844;SDS011;68195;50.854;2.860;2023-06-19T01:58:28;19.80;;;13.75;;
78844;SDS011;68195;50.854;2.860;2023-06-19T02:00:54;18.35;;;13.60;;
78844;SDS011;68195;50.854;2.860;2023-06-19T02:03:20;19.13;;;13.80;;
78844;SDS011;68195;50.854;2.860;2023-06-19T02:05:46;18.95;;;13.05;;
78844;SDS011;68195;50.854;2.860;2023-06-19T02:08:16;20.80;;;13.45;;
78844;SDS011;68195;50.854;2.860;2023-06-19T02:10:42;19.90;;;14.63;;
78844;SDS011;68195;50.854;2.860;2023-06-19T02:13:07;23.80;;;15.10;;
78844;SDS011;68195;50.854;2.860;2023-06-19T02:15:33;24.05;;;16.85;;
78844;SDS011;68195;50.854;2.860;2023-06-19T02:18:03;20.25;;;14.35;;
78844;SDS011;68195;50.854;2.860;2023-06-19T02:20:31;26.20;;;18.00;;
78844;SDS011;68195;50.854;2.860;2023-06-19T02:22:59;20.83;;;13.95;;
78844;SDS011;68195;50.854;2.860;2023-06-19T02:25:31;22.52;;;15.25;;
78844;SDS011;68195;50.854;2.860;2023-06-19T02:28:02;24.83;;;15.55;;
78844;SDS011;68195;50.854;2.860;2023-06-19T02:30:28;26.27;;;16.13;;
78844;SDS011;68195;50.854;2.860;2023-06-19T02:32:54;24.23;;;15.80;;
78844;SDS011;68195;50.854;2.860;2023-06-19T02:35:19;22.88;;;14.73;;
78844;SDS011;68195;50.854;2.860;2023-06-19T02:37:45;21.60;;;15.43;;
78844;SDS011;68195;50.854;2.860;2023-06-19T02:40:13;24.65;;;15.30;;
78844;SDS011;68195;50.854;2.860;2023-06-19T02:42:41;24.95;;;15.43;;
78844;SDS011;68195;50.854;2.860;2023-06-19T02:45:07;22.45;;;15.20;;
78844;SDS011;68195;50.854;2.860;2023-06-19T02:47:35;23.10;;;15.25;;
78844;SDS011;68195;50.854;2.860;2023-06-19T02:50:01;24.35;;;16.60;;
78844;SDS011;68195;50.854;2.860;2023-06-19T02:52:31;23.02;;;15.82;;
78844;SDS011;68195;50.854;2.860;2023-06-19T02:54:58;23.63;;;16.33;;
78844;SDS011;68195;50.854;2.860;2023-06-19T02:57:24;23.98;;;16.00;;
78844;SDS011;68195;50.854;2.860;2023-06-19T02:59:51;25.88;;;16.05;;
78844;SDS011;68195;50.854;2.860;2023-06-19T03:02:17;26.83;;;15.73;;
78844;SDS011;68195;50.854;2.860;2023-06-19T03:04:46;25.02;;;15.77;;
78844;SDS011;68195;50.854;2.860;2023-06-19T03:07:14;25.45;;;16.02;;
78844;SDS011;68195;50.854;2.860;2023-06-19T03:09:39;24.45;;;16.35;;
78844;SDS011;68195;50.854;2.860;2023-06-19T03:12:07;27.27;;;16.63;;
78844;SDS011;68195;50.854;2.860;2023-06-19T03:14:33;24.00;;;15.85;;
78844;SDS011;68195;50.854;2.860;2023-06-19T03:17:01;23.98;;;15.50;;
78844;SDS011;68195;50.854;2.860;2023-06-19T03:19:27;23.77;;;15.80;;
78844;SDS011;68195;50.854;2.860;2023-06-19T03:21:54;22.48;;;15.10;;
78844;SDS011;68195;50.854;2.860;2023-06-19T03:24:19;24.50;;;15.07;;
78844;SDS011;68195;50.854;2.860;2023-06-19T03:26:45;25.38;;;15.50;;
78844;SDS011;68195;50.854;2.860;2023-06-19T03:29:10;23.88;;;14.50;;
78844;SDS011;68195;50.854;2.860;2023-06-19T03:31:38;22.85;;;14.57;;
78844;SDS011;68195;50.854;2.860;2023-06-19T03:34:05;25.90;;;16.10;;
78844;SDS011;68195;50.854;2.860;2023-06-19T03:36:31;26.65;;;14.50;;
78844;SDS011;68195;50.854;2.860;2023-06-19T03:38:56;27.40;;;15.85;;
78844;SDS011;68195;50.854;2.860;2023-06-19T03:41:24;23.17;;;14.88;;
78844;SDS011;68195;50.854;2.860;2023-06-19T03:43:49;21.95;;;14.35;;
78844;SDS011;68195;50.854;2.860;2023-06-19T03:46:15;20.25;;;13.23;;
78844;SDS011;68195;50.854;2.860;2023-06-19T03:48:40;22.27;;;14.43;;
78844;SDS011;68195;50.854;2.860;2023-06-19T03:51:08;22.95;;;15.15;;
78844;SDS011;68195;50.854;2.860;2023-06-19T03:53:33;24.35;;;13.10;;
78844;SDS011;68195;50.854;2.860;2023-06-19T03:56:00;22.70;;;14.00;;
78844;SDS011;68195;50.854;2.860;2023-06-19T03:58:28;22.27;;;13.18;;
78844;SDS011;68195;50.854;2.860;2023-06-19T04:00:56;22.05;;;13.50;;
78844;SDS011;68195;50.854;2.860;2023-06-19T04:03:21;20.90;;;13.55;;
78844;SDS011;68195;50.854;2.860;2023-06-19T04:05:52;24.23;;;14.63;;
78844;SDS011;68195;50.854;2.860;2023-06-19T04:08:17;22.17;;;13.88;;
78844;SDS011;68195;50.854;2.860;2023-06-19T04:10:45;24.02;;;14.38;;
78844;SDS011;68195;50.854;2.860;2023-06-19T04:13:11;22.67;;;14.55;;
78844;SDS011;68195;50.854;2.860;2023-06-19T04:15:37;20.90;;;13.23;;
78844;SDS011;68195;50.854;2.860;2023-06-19T04:18:04;22.40;;;14.20;;
78844;SDS011;68195;50.854;2.860;2023-06-19T04:20:32;23.25;;;14.32;;
78844;SDS011;68195;50.854;2.860;2023-06-19T04:22:59;23.55;;;14.75;;
78844;SDS011;68195;50.854;2.860;2023-06-19T04:25:25;24.75;;;14.80;;
78844;SDS011;68195;50.854;2.860;2023-06-19T04:27:50;25.75;;;14.50;;
78844;SDS011;68195;50.854;2.860;2023-06-19T04:30:18;24.67;;;14.63;;
78844;SDS011;68195;50.854;2.860;2023-06-19T04:32:46;22.92;;;14.50;;
78844;SDS011;68195;50.854;2.860;2023-06-19T04:35:14;24.35;;;16.13;;
78844;SDS011;68195;50.854;2.860;2023-06-19T04:37:43;24.63;;;14.73;;
78844;SDS011;68195;50.854;2.860;2023-06-19T04:40:08;26.60;;;14.85;;
78844;SDS011;68195;50.854;2.860;2023-06-19T04:42:37;22.85;;;14.00;;
78844;SDS011;68195;50.854;2.860;2023-06-19T04:45:05;26.02;;;15.30;;
78844;SDS011;68195;50.854;2.860;2023-06-19T04:47:32;22.95;;;14.52;;
78844;SDS011;68195;50.854;2.860;2023-06-19T04:50:00;26.83;;;16.02;;
78844;SDS011;68195;50.854;2.860;2023-06-19T04:52:28;28.45;;;15.93;;
78844;SDS011;68195;50.854;2.860;2023-06-19T04:54:53;24.55;;;14.98;;
78844;SDS011;68195;50.854;2.860;2023-06-19T04:57:19;24.05;;;14.95;;
78844;SDS011;68195;50.854;2.860;2023-06-19T04:59:49;22.77;;;14.35;;
78844;SDS011;68195;50.854;2.860;2023-06-19T05:02:14;26.60;;;16.15;;
78844;SDS011;68195;50.854;2.860;2023-06-19T05:04:42;22.50;;;15.13;;
78844;SDS011;68195;50.854;2.860;2023-06-19T05:07:09;23.63;;;14.88;;
78844;SDS011;68195;50.854;2.860;2023-06-19T05:09:40;22.38;;;14.18;;
78844;SDS011;68195;50.854;2.860;2023-06-19T05:12:05;21.77;;;14.35;;
78844;SDS011;68195;50.854;2.860;2023-06-19T05:14:31;21.98;;;14.60;;
78844;SDS011;68195;50.854;2.860;2023-06-19T05:16:56;27.40;;;14.43;;
78844;SDS011;68195;50.854;2.860;2023-06-19T05:19:24;22.98;;;13.43;;
78844;SDS011;68195;50.854;2.860;2023-06-19T05:21:49;21.27;;;13.63;;
78844;SDS011;68195;50.854;2.860;2023-06-19T05:24:15;19.42;;;14.13;;
78844;SDS011;68195;50.854;2.860;2023-06-19T05:26:40;22.70;;;14.23;;
78844;SDS011;68195;50.854;2.860;2023-06-19T05:29:09;21.45;;;14.00;;
78844;SDS011;68195;50.854;2.860;2023-06-19T05:31:34;19.90;;;12.68;;
78844;SDS011;68195;50.854;2.860;2023-06-19T05:34:00;19.35;;;12.65;;
78844;SDS011;68195;50.854;2.860;2023-06-19T05:36:25;21.02;;;12.75;;
78844;SDS011;68195;50.854;2.860;2023-06-19T05:38:55;17.75;;;11.45;;
78844;SDS011;68195;50.854;2.860;2023-06-19T05:41:23;18.63;;;11.10;;
78844;SDS011;68195;50.854;2.860;2023-06-19T05:43:48;18.92;;;13.10;;
78844;SDS011;68195;50.854;2.860;2023-06-19T05:46:16;23.90;;;12.02;;
78844;SDS011;68195;50.854;2.860;2023-06-19T05:48:47;23.85;;;13.75;;
78844;SDS011;68195;50.854;2.860;2023-06-19T05:51:12;20.20;;;13.45;;
78844;SDS011;68195;50.854;2.860;2023-06-19T05:53:38;18.25;;;12.68;;
78844;SDS011;68195;50.854;2.860;2023-06-19T05:56:04;17.60;;;11.60;;
78844;SDS011;68195;50.854;2.860;2023-06-19T05:58:30;17.33;;;12.35;;
78844;SDS011;68195;50.854;2.860;2023-06-19T06:01:00;17.45;;;11.48;;
78844;SDS011;68195;50.854;2.860;2023-06-19T06:03:27;19.25;;;12.18;;
78844;SDS011;68195;50.854;2.860;2023-06-19T06:05:58;20.55;;;12.88;;
78844;SDS011;68195;50.854;2.860;2023-06-19T06:08:30;19.48;;;11.85;;
78844;SDS011;68195;50.854;2.860;2023-06-19T06:10:57;17.17;;;11.02;;
78844;SDS011;68195;50.854;2.860;2023-06-19T06:13:22;17.88;;;11.45;;
78844;SDS011;68195;50.854;2.860;2023-06-19T06:15:47;17.05;;;11.57;;
78844;SDS011;68195;50.854;2.860;2023-06-19T06:18:15;15.30;;;10.38;;
78844;SDS011;68195;50.854;2.860;2023-06-19T06:20:41;19.98;;;12.02;;
78844;SDS011;68195;50.854;2.860;2023-06-19T06:23:06;18.92;;;12.23;;
78844;SDS011;68195;50.854;2.860;2023-06-19T06:25:31;17.92;;;11.52;;
78844;SDS011;68195;50.854;2.860;2023-06-19T06:27:57;16.83;;;11.75;;
78844;SDS011;68195;50.854;2.860;2023-06-19T06:30:22;18.10;;;11.95;;
78844;SDS011;68195;50.854;2.860;2023-06-19T06:32:52;20.67;;;12.77;;
78844;SDS011;68195;50.854;2.860;2023-06-19T06:35:17;19.20;;;12.85;;
78844;SDS011;68195;50.854;2.860;2023-06-19T06:37:43;19.17;;;11.40;;
78844;SDS011;68195;50.854;2.860;2023-06-19T06:40:11;18.52;;;12.20;;
78844;SDS011;68195;50.854;2.860;2023-06-19T06:42:39;17.98;;;12.77;;
78844;SDS011;68195;50.854;2.860;2023-06-19T06:45:05;17.63;;;12.20;;
78844;SDS011;68195;50.854;2.860;2023-06-19T06:47:31;18.48;;;11.23;;
78844;SDS011;68195;50.854;2.860;2023-06-19T06:49:57;17.70;;;11.82;;
78844;SDS011;68195;50.854;2.860;2023-06-19T06:52:25;15.88;;;11.95;;
78844;SDS011;68195;50.854;2.860;2023-06-19T06:54:53;18.30;;;11.13;;
78844;SDS011;68195;50.854;2.860;2023-06-19T06:57:18;18.15;;;11.65;;
78844;SDS011;68195;50.854;2.860;2023-06-19T06:59:44;14.88;;;10.63;;
78844;SDS011;68195;50.854;2.860;2023-06-19T07:02:09;17.80;;;11.18;;
78844;SDS011;68195;50.854;2.860;2023-06-19T07:04:37;16.27;;;11.32;;
78844;SDS011;68195;50.854;2.860;2023-06-19T07:07:02;19.30;;;11.45;;
78844;SDS011;68195;50.854;2.860;2023-06-19T07:09:30;17.17;;;11.25;;
78844;SDS011;68195;50.854;2.860;2023-06-19T07:11:56;23.08;;;11.35;;
78844;SDS011;68195;50.854;2.860;2023-06-19T07:14:22;15.55;;;11.90;;
78844;SDS011;68195;50.854;2.860;2023-06-19T07:16:48;18.33;;;12.48;;
78844;SDS011;68195;50.854;2.860;2023-06-19T07:19:14;18.00;;;12.27;;
78844;SDS011;68195;50.854;2.860;2023-06-19T07:21:40;18.45;;;11.82;;
78844;SDS011;68195;50.854;2.860;2023-06-19T07:24:05;21.30;;;12.02;;
78844;SDS011;68195;50.854;2.860;2023-06-19T07:26:33;20.10;;;13.80;;
78844;SDS011;68195;50.854;2.860;2023-06-19T07:28:59;16.38;;;12.13;;
78844;SDS011;68195;50.854;2.860;2023-06-19T07:31:24;20.73;;;12.10;;
78844;SDS011;68195;50.854;2.860;2023-06-19T07:33:50;18.58;;;11.73;;
78844;SDS011;68195;50.854;2.860;2023-06-19T07:36:17;15.18;;;10.27;;
78844;SDS011;68195;50.854;2.860;2023-06-19T07:38:43;18.40;;;10.70;;
78844;SDS011;68195;50.854;2.860;2023-06-19T07:41:09;16.90;;;10.45;;
78844;SDS011;68195;50.854;2.860;2023-06-19T07:43:34;15.45;;;10.48;;
78844;SDS011;68195;50.854;2.860;2023-06-19T07:46:03;14.27;;;9.77;;
78844;SDS011;68195;50.854;2.860;2023-06-19T07:48:31;14.68;;;9.30;;
78844;SDS011;68195;50.854;2.860;2023-06-19T07:50:57;16.75;;;10.85;;
78844;SDS011;68195;50.854;2.860;2023-06-19T07:53:24;10.48;;;8.05;;
78844;SDS011;68195;50.854;2.860;2023-06-19T07:55:52;13.35;;;8.90;;
78844;SDS011;68195;50.854;2.860;2023-06-19T07:58:17;12.68;;;8.68;;
78844;SDS011;68195;50.854;2.860;2023-06-19T08:00:43;12.30;;;8.35;;
78844;SDS011;68195;50.854;2.860;2023-06-19T08:03:10;13.05;;;8.27;;
78844;SDS011;68195;50.854;2.860;2023-06-19T08:05:38;12.45;;;8.50;;
78844;SDS011;68195;50.854;2.860;2023-06-19T08:08:04;12.70;;;8.10;;
78844;SDS011;68195;50.854;2.860;2023-06-19T08:10:29;12.55;;;8.38;;
78844;SDS011;68195;50.854;2.860;2023-06-19T08:12:54;13.65;;;8.25;;
78844;SDS011;68195;50.854;2.860;2023-06-19T08:15:20;11.93;;;8.00;;
78844;SDS011;68195;50.854;2.860;2023-06-19T08:17:45;13.48;;;7.97;;
78844;SDS011;68195;50.854;2.860;2023-06-19T08:20:11;14.38;;;9.23;;
78844;SDS011;68195;50.854;2.860;2023-06-19T08:22:38;13.68;;;8.85;;
78844;SDS011;68195;50.854;2.860;2023-06-19T08:25:04;14.27;;;9.80;;
78844;SDS011;68195;50.854;2.860;2023-06-19T08:27:32;13.85;;;9.02;;
78844;SDS011;68195;50.854;2.860;2023-06-19T08:29:57;12.68;;;8.57;;
78844;SDS011;68195;50.854;2.860;2023-06-19T08:32:23;12.40;;;8.32;;
78844;SDS011;68195;50.854;2.860;2023-06-19T08:34:48;16.00;;;9.05;;
78844;SDS011;68195;50.854;2.860;2023-06-19T08:37:13;11.73;;;9.65;;
78844;SDS011;68195;50.854;2.860;2023-06-19T08:39:39;12.85;;;9.00;;
78844;SDS011;68195;50.854;2.860;2023-06-19T08:42:08;12.45;;;8.68;;
78844;SDS011;68195;50.854;2.860;2023-06-19T08:44:34;13.90;;;9.00;;
78844;SDS011;68195;50.854;2.860;2023-06-19T08:47:01;10.48;;;8.23;;
78844;SDS011;68195;50.854;2.860;2023-06-19T08:49:33;12.65;;;8.43;;
78844;SDS011;68195;50.854;2.860;2023-06-19T08:52:02;11.77;;;7.97;;
78844;SDS011;68195;50.854;2.860;2023-06-19T08:54:28;14.80;;;8.88;;
78844;SDS011;68195;50.854;2.860;2023-06-19T08:56:54;11.98;;;8.27;;
78844;SDS011;68195;50.854;2.860;2023-06-19T08:59:20;11.95;;;8.10;;
78844;SDS011;68195;50.854;2.860;2023-06-19T09:04:16;11.73;;;7.90;;
78844;SDS011;68195;50.854;2.860;2023-06-19T09:09:18;13.50;;;8.70;;
78844;SDS011;68195;50.854;2.860;2023-06-19T09:12:07;9.65;;;6.60;;
78844;SDS011;68195;50.854;2.860;2023-06-19T09:17:03;14.63;;;7.32;;
78844;SDS011;68195;50.854;2.860;2023-06-19T09:19:29;10.85;;;7.40;;
78844;SDS011;68195;50.854;2.860;2023-06-19T09:22:05;10.40;;;6.57;;
78844;SDS011;68195;50.854;2.860;2023-06-19T09:24:36;12.77;;;7.45;;
78844;SDS011;68195;50.854;2.860;2023-06-19T09:27:10;8.68;;;6.75;;
78844;SDS011;68195;50.854;2.860;2023-06-19T09:29:46;12.77;;;7.28;;
78844;SDS011;68195;50.854;2.860;2023-06-19T09:32:19;10.70;;;7.88;;
78844;SDS011;68195;50.854;2.860;2023-06-19T09:34:54;9.48;;;6.80;;
78844;SDS011;68195;50.854;2.860;2023-06-19T09:39:54;10.82;;;6.50;;
78844;SDS011;68195;50.854;2.860;2023-06-19T09:42:27;10.07;;;6.90;;
78844;SDS011;68195;50.854;2.860;2023-06-19T09:45:00;10.73;;;7.50;;
78844;SDS011;68195;50.854;2.860;2023-06-19T09:47:39;11.18;;;7.63;;
78844;SDS011;68195;50.854;2.860;2023-06-19T09:50:14;13.32;;;6.97;;
78844;SDS011;68195;50.854;2.860;2023-06-19T09:52:43;11.00;;;8.57;;
78844;SDS011;68195;50.854;2.860;2023-06-19T09:55:10;10.00;;;6.70;;
78844;SDS011;68195;50.854;2.860;2023-06-19T09:57:40;12.07;;;7.28;;
78844;SDS011;68195;50.854;2.860;2023-06-19T10:00:07;11.10;;;6.82;;
78844;SDS011;68195;50.854;2.860;2023-06-19T10:02:47;10.57;;;6.72;;
78844;SDS011;68195;50.854;2.860;2023-06-19T10:05:14;8.40;;;6.03;;
78844;SDS011;68195;50.854;2.860;2023-06-19T10:07:44;10.10;;;7.15;;
78844;SDS011;68195;50.854;2.860;2023-06-19T10:10:33;11.95;;;7.30;;
78844;SDS011;68195;50.854;2.860;2023-06-19T10:13:30;10.57;;;6.57;;
78844;SDS011;68195;50.854;2.860;2023-06-19T10:15:55;10.98;;;6.10;;
78844;SDS011;68195;50.854;2.860;2023-06-19T10:18:20;9.48;;;6.80;;
78844;SDS011;68195;50.854;2.860;2023-06-19T10:20:46;10.60;;;7.20;;
78844;SDS011;68195;50.854;2.860;2023-06-19T10:23:18;8.13;;;5.80;;
78844;SDS011;68195;50.854;2.860;2023-06-19T10:25:47;9.80;;;6.95;;
78844;SDS011;68195;50.854;2.860;2023-06-19T10:28:18;12.43;;;7.28;;
78844;SDS011;68195;50.854;2.860;2023-06-19T10:30:53;10.52;;;7.53;;
78844;SDS011;68195;50.854;2.860;2023-06-19T10:33:19;11.60;;;7.55;;
78844;SDS011;68195;50.854;2.860;2023-06-19T10:35:50;10.63;;;7.65;;
78844;SDS011;68195;50.854;2.860;2023-06-19T10:38:19;10.75;;;8.30;;
78844;SDS011;68195;50.854;2.860;2023-06-19T10:40:47;9.48;;;7.20;;
78844;SDS011;68195;50.854;2.860;2023-06-19T10:43:13;14.15;;;9.32;;
78844;SDS011;68195;50.854;2.860;2023-06-19T10:45:50;11.80;;;8.27;;
78844;SDS011;68195;50.854;2.860;2023-06-19T10:48:22;12.88;;;7.22;;
78844;SDS011;68195;50.854;2.860;2023-06-19T10:50:49;9.27;;;7.45;;
78844;SDS011;68195;50.854;2.860;2023-06-19T10:53:25;10.45;;;7.57;;
78844;SDS011;68195;50.854;2.860;2023-06-19T10:55:55;11.45;;;7.13;;
78844;SDS011;68195;50.854;2.860;2023-06-19T10:58:26;9.30;;;7.40;;
78844;SDS011;68195;50.854;2.860;2023-06-19T11:00:52;9.35;;;7.18;;
78844;SDS011;68195;50.854;2.860;2023-06-19T11:03:20;9.65;;;6.82;;
78844;SDS011;68195;50.854;2.860;2023-06-19T11:05:46;11.93;;;7.53;;
78844;SDS011;68195;50.854;2.860;2023-06-19T11:08:17;12.82;;;7.30;;
78844;SDS011;68195;50.854;2.860;2023-06-19T11:10:44;12.15;;;8.38;;
78844;SDS011;68195;50.854;2.860;2023-06-19T11:13:15;12.35;;;6.85;;
78844;SDS011;68195;50.854;2.860;2023-06-19T11:15:42;9.32;;;6.93;;
78844;SDS011;68195;50.854;2.860;2023-06-19T11:18:14;10.80;;;7.60;;
78844;SDS011;68195;50.854;2.860;2023-06-19T11:20:49;10.10;;;7.07;;
78844;SDS011;68195;50.854;2.860;2023-06-19T11:23:25;8.05;;;6.60;;
78844;SDS011;68195;50.854;2.860;2023-06-19T11:25:52;10.40;;;7.75;;
78844;SDS011;68195;50.854;2.860;2023-06-19T11:28:17;11.77;;;7.53;;
78844;SDS011;68195;50.854;2.860;2023-06-19T11:30:47;8.50;;;6.93;;
78844;SDS011;68195;50.854;2.860;2023-06-19T11:33:18;13.50;;;8.45;;
78844;SDS011;68195;50.854;2.860;2023-06-19T11:35:51;8.95;;;6.80;;
78844;SDS011;68195;50.854;2.860;2023-06-19T11:38:18;9.32;;;7.15;;
78844;SDS011;68195;50.854;2.860;2023-06-19T11:40:46;9.13;;;7.30;;
78844;SDS011;68195;50.854;2.860;2023-06-19T11:43:12;11.50;;;8.70;;
78844;SDS011;68195;50.854;2.860;2023-06-19T11:45:45;8.50;;;6.95;;
78844;SDS011;68195;50.854;2.860;2023-06-19T11:48:25;11.57;;;7.65;;
78844;SDS011;68195;50.854;2.860;2023-06-19T11:50:51;9.63;;;6.85;;
78844;SDS011;68195;50.854;2.860;2023-06-19T11:53:18;8.75;;;6.35;;
78844;SDS011;68195;50.854;2.860;2023-06-19T11:55:50;10.45;;;6.63;;
78844;SDS011;68195;50.854;2.860;2023-06-19T11:58:16;8.95;;;6.43;;
78844;SDS011;68195;50.854;2.860;2023-06-19T12:00:46;11.95;;;6.35;;
78844;SDS011;68195;50.854;2.860;2023-06-19T12:03:11;10.23;;;6.78;;
78844;SDS011;68195;50.854;2.860;2023-06-19T12:05:39;10.10;;;7.82;;
78844;SDS011;68195;50.854;2.860;2023-06-19T12:08:05;10.00;;;6.53;;
78844;SDS011;68195;50.854;2.860;2023-06-19T12:10:33;10.70;;;5.88;;
78844;SDS011;68195;50.854;2.860;2023-06-19T12:13:01;6.55;;;4.70;;
78844;SDS011;68195;50.854;2.860;2023-06-19T12:15:31;7.40;;;5.03;;
78844;SDS011;68195;50.854;2.860;2023-06-19T12:17:56;9.80;;;6.03;;
78844;SDS011;68195;50.854;2.860;2023-06-19T12:20:23;9.80;;;5.95;;
78844;SDS011;68195;50.854;2.860;2023-06-19T12:22:49;8.90;;;6.13;;
78844;SDS011;68195;50.854;2.860;2023-06-19T12:25:14;8.80;;;5.72;;
78844;SDS011;68195;50.854;2.860;2023-06-19T12:27:42;10.80;;;6.65;;
78844;SDS011;68195;50.854;2.860;2023-06-19T12:30:08;10.82;;;5.82;;
78844;SDS011;68195;50.854;2.860;2023-06-19T12:32:34;6.85;;;5.22;;
78844;SDS011;68195;50.854;2.860;2023-06-19T12:34:59;8.85;;;5.82;;
78844;SDS011;68195;50.854;2.860;2023-06-19T12:37:25;7.90;;;5.93;;
78844;SDS011;68195;50.854;2.860;2023-06-19T12:39:50;10.10;;;5.70;;
78844;SDS011;68195;50.854;2.860;2023-06-19T12:42:16;7.50;;;5.75;;
78844;SDS011;68195;50.854;2.860;2023-06-19T12:44:41;9.18;;;5.38;;
78844;SDS011;68195;50.854;2.860;2023-06-19T12:47:10;9.15;;;6.03;;
78844;SDS011;68195;50.854;2.860;2023-06-19T12:49:38;10.52;;;6.78;;
78844;SDS011;68195;50.854;2.860;2023-06-19T12:52:08;10.05;;;6.03;;
78844;SDS011;68195;50.854;2.860;2023-06-19T12:54:34;8.13;;;5.93;;
78844;SDS011;68195;50.854;2.860;2023-06-19T12:57:00;9.23;;;6.43;;
78844;SDS011;68195;50.854;2.860;2023-06-19T12:59:27;11.13;;;7.50;;
78844;SDS011;68195;50.854;2.860;2023-06-19T13:01:54;9.70;;;5.43;;
78844;SDS011;68195;50.854;2.860;2023-06-19T13:04:19;7.70;;;5.78;;
78844;SDS011;68195;50.854;2.860;2023-06-19T13:06:45;8.20;;;6.00;;
78844;SDS011;68195;50.854;2.860;2023-06-19T13:09:10;9.20;;;5.35;;
78844;SDS011;68195;50.854;2.860;2023-06-19T13:11:35;6.90;;;5.68;;
78844;SDS011;68195;50.854;2.860;2023-06-19T13:14:04;6.03;;;4.88;;
78844;SDS011;68195;50.854;2.860;2023-06-19T13:16:34;9.02;;;5.65;;
78844;SDS011;68195;50.854;2.860;2023-06-19T13:19:02;11.85;;;5.88;;
78844;SDS011;68195;50.854;2.860;2023-06-19T13:21:32;10.20;;;5.65;;
78844;SDS011;68195;50.854;2.860;2023-06-19T13:23:58;7.95;;;5.32;;
78844;SDS011;68195;50.854;2.860;2023-06-19T13:26:23;8.57;;;6.43;;
78844;SDS011;68195;50.854;2.860;2023-06-19T13:28:49;8.13;;;6.05;;
78844;SDS011;68195;50.854;2.860;2023-06-19T13:31:16;10.23;;;6.60;;
78844;SDS011;68195;50.854;2.860;2023-06-19T13:33:42;7.65;;;5.90;;
78844;SDS011;68195;50.854;2.860;2023-06-19T13:36:09;8.20;;;5.47;;
78844;SDS011;68195;50.854;2.860;2023-06-19T13:38:35;8.13;;;5.50;;
78844;SDS011;68195;50.854;2.860;2023-06-19T13:41:00;6.68;;;4.88;;
78844;SDS011;68195;50.854;2.860;2023-06-19T13:43:28;8.82;;;6.13;;
78844;SDS011;68195;50.854;2.860;2023-06-19T13:45:56;9.27;;;5.20;;
78844;SDS011;68195;50.854;2.860;2023-06-19T13:48:24;8.35;;;5.40;;
78844;SDS011;68195;50.854;2.860;2023-06-19T13:50:51;7.40;;;4.90;;
78844;SDS011;68195;50.854;2.860;2023-06-19T13:53:17;9.45;;;5.78;;
78844;SDS011;68195;50.854;2.860;2023-06-19T13:55:42;6.68;;;5.15;;
78844;SDS011;68195;50.854;2.860;2023-06-19T13:58:08;6.40;;;4.88;;
78844;SDS011;68195;50.854;2.860;2023-06-19T14:00:35;6.82;;;5.15;;
78844;SDS011;68195;50.854;2.860;2023-06-19T14:03:01;7.68;;;5.13;;
78844;SDS011;68195;50.854;2.860;2023-06-19T14:05:28;10.25;;;5.72;;
78844;SDS011;68195;50.854;2.860;2023-06-19T14:07:56;7.38;;;5.50;;
78844;SDS011;68195;50.854;2.860;2023-06-19T14:10:24;12.82;;;5.88;;
78844;SDS011;68195;50.854;2.860;2023-06-19T14:12:49;7.72;;;5.47;;
78844;SDS011;68195;50.854;2.860;2023-06-19T14:15:15;7.90;;;5.47;;
78844;SDS011;68195;50.854;2.860;2023-06-19T14:17:42;8.32;;;5.05;;
78844;SDS011;68195;50.854;2.860;2023-06-19T14:20:10;8.95;;;5.97;;
78844;SDS011;68195;50.854;2.860;2023-06-19T14:22:38;9.63;;;5.72;;
78844;SDS011;68195;50.854;2.860;2023-06-19T14:25:04;9.07;;;6.03;;
78844;SDS011;68195;50.854;2.860;2023-06-19T14:27:32;7.47;;;5.45;;
78844;SDS011;68195;50.854;2.860;2023-06-19T14:30:01;8.98;;;5.78;;
78844;SDS011;68195;50.854;2.860;2023-06-19T14:32:27;7.22;;;5.93;;
78844;SDS011;68195;50.854;2.860;2023-06-19T14:34:55;7.90;;;5.50;;
78844;SDS011;68195;50.854;2.860;2023-06-19T14:37:20;6.70;;;5.53;;
78844;SDS011;68195;50.854;2.860;2023-06-19T14:39:50;8.45;;;5.68;;
78844;SDS011;68195;50.854;2.860;2023-06-19T14:42:19;7.22;;;5.60;;
78844;SDS011;68195;50.854;2.860;2023-06-19T14:44:47;6.60;;;5.90;;
78844;SDS011;68195;50.854;2.860;2023-06-19T14:47:15;8.60;;;5.10;;
78844;SDS011;68195;50.854;2.860;2023-06-19T14:49:45;7.05;;;4.90;;